TimeEDT,TemperatureF,Dew PointF,Humidity,Sea Level PressureIn,VisibilityMPH,Wind Direction,Wind SpeedMPH,Gust SpeedMPH,PrecipitationIn,Events,Conditions,WindDirDegrees,DateUTC
12:53 AM,77.0,62.1,60,30.13,10.0,ENE,11.5,-,N/A,,Clear,70,2013-05-15 04:53:00
1:53 AM,75.9,62.1,62,30.12,10.0,ENE,8.1,-,N/A,,Clear,70,2013-05-15 05:53:00
2:53 AM,75.9,62.1,62,30.11,10.0,ENE,10.4,-,N/A,,Clear,70,2013-05-15 06:53:00
3:53 AM,75.0,62.1,64,30.11,10.0,ENE,8.1,-,N/A,,Clear,60,2013-05-15 07:53:00
4:53 AM,73.9,63.0,68,30.11,10.0,NE,6.9,-,N/A,,Clear,40,2013-05-15 08:53:00
5:53 AM,73.9,64.0,71,30.12,10.0,NE,5.8,-,N/A,,Clear,50,2013-05-15 09:53:00
6:53 AM,73.0,63.0,71,30.12,10.0,NE,6.9,-,N/A,,Scattered Clouds,50,2013-05-15 10:53:00
7:53 AM,75.9,64.0,67,30.14,10.0,NE,6.9,-,N/A,,Scattered Clouds,50,2013-05-15 11:53:00
8:53 AM,79.0,64.0,60,30.15,10.0,NE,6.9,-,N/A,,Partly Cloudy,50,2013-05-15 12:53:00
9:53 AM,80.1,64.9,60,30.15,10.0,NNE,10.4,-,N/A,,Partly Cloudy,30,2013-05-15 13:53:00
10:53 AM,79.0,66.0,64,30.15,10.0,NNE,11.5,-,N/A,,Scattered Clouds,30,2013-05-15 14:53:00
11:53 AM,82.9,66.9,58,30.14,10.0,East,13.8,-,N/A,,Scattered Clouds,90,2013-05-15 15:53:00
12:53 PM,84.0,66.0,55,30.14,10.0,East,17.3,-,N/A,,Mostly Cloudy,100,2013-05-15 16:53:00
1:53 PM,82.9,64.9,54,30.12,10.0,East,20.7,-,N/A,,Mostly Cloudy,100,2013-05-15 17:53:00
2:53 PM,81.0,64.0,56,30.11,10.0,East,20.7,25.3,N/A,,Scattered Clouds,80,2013-05-15 18:53:00
3:53 PM,82.9,64.0,53,30.09,10.0,East,18.4,-,N/A,,Mostly Cloudy,90,2013-05-15 19:53:00
4:53 PM,82.0,64.0,54,30.08,10.0,East,17.3,-,N/A,,Mostly Cloudy,90,2013-05-15 20:53:00
5:53 PM,81.0,62.1,52,30.07,10.0,East,18.4,-,N/A,,Scattered Clouds,90,2013-05-15 21:53:00
6:53 PM,79.0,62.1,56,30.07,10.0,East,15.0,-,N/A,,Scattered Clouds,90,2013-05-15 22:53:00
7:53 PM,77.0,63.0,62,30.07,10.0,East,13.8,-,N/A,,Scattered Clouds,80,2013-05-15 23:53:00
8:53 PM,77.0,61.0,58,30.08,10.0,East,15.0,-,N/A,,Scattered Clouds,90,2013-05-16 00:53:00
9:53 PM,75.9,63.0,64,30.09,10.0,East,10.4,-,N/A,,Partly Cloudy,90,2013-05-16 01:53:00
10:53 PM,77.0,64.0,64,30.09,10.0,ESE,13.8,-,N/A,,Mostly Cloudy,110,2013-05-16 02:53:00
11:53 PM,77.0,64.9,66,30.08,10.0,East,15.0,-,0.00,,Overcast,90,2013-05-16 03:53:00